createdAt,value
2019-06-15T00:02:58.527Z,97531.66
2019-06-15T00:06:03.005Z,97530.30
2019-06-15T00:09:08.187Z,97526.78
2019-06-15T00:12:12.628Z,97510.14
2019-06-15T00:15:17.319Z,97469.30
2019-06-15T00:18:21.791Z,97479.80
2019-06-15T00:21:26.243Z,97461.00
2019-06-15T00:24:35.476Z,97448.55
2019-06-15T00:27:36.868Z,97461.67
2019-06-15T00:30:41.478Z,97460.63
2019-06-15T00:33:45.936Z,97448.73
2019-06-15T00:36:50.388Z,97465.94
2019-06-15T00:39:54.838Z,97450.80
2019-06-15T00:42:59.365Z,97445.94
2019-06-15T00:46:04.082Z,97446.41
2019-06-15T00:49:08.866Z,97455.46
2019-06-15T00:52:13.319Z,97444.73
2019-06-15T00:55:17.755Z,97437.05
2019-06-15T00:58:22.206Z,97436.37
2019-06-15T01:01:26.648Z,97443.38
2019-06-15T01:04:31.114Z,97443.28
2019-06-15T01:07:35.858Z,97451.21
2019-06-15T01:10:40.306Z,97450.85
2019-06-15T01:13:44.769Z,97441.23
2019-06-15T01:16:49.215Z,97433.80
2019-06-15T01:19:53.921Z,97418.53
2019-06-15T01:22:58.387Z,97407.45
2019-06-15T01:26:02.831Z,97416.84
2019-06-15T01:29:07.277Z,97417.05
2019-06-15T01:32:11.724Z,97413.23
2019-06-15T01:35:17.183Z,97412.64
2019-06-15T01:38:21.631Z,97413.43
2019-06-15T01:41:26.080Z,97418.98
2019-06-15T01:44:30.563Z,97428.55
2019-06-15T01:47:35.462Z,97428.05
2019-06-15T01:50:39.914Z,97424.07
2019-06-15T01:53:44.366Z,97414.88
2019-06-15T01:56:48.816Z,97419.52
2019-06-15T01:59:53.269Z,97415.95
2019-06-15T02:02:58.007Z,97431.61
2019-06-15T02:06:02.660Z,97436.22
2019-06-15T02:09:09.018Z,97439.45
2019-06-15T02:12:13.466Z,97437.72
2019-06-15T02:15:18.092Z,97444.73
2019-06-15T02:18:22.785Z,97443.71
2019-06-15T02:21:27.230Z,97449.47
2019-06-15T02:24:31.937Z,97455.62
2019-06-15T02:27:36.455Z,97448.29
2019-06-15T02:30:40.908Z,97452.42
2019-06-15T02:33:45.363Z,97458.77
2019-06-15T02:36:49.807Z,97453.44
2019-06-15T02:39:54.262Z,97460.48
2019-06-15T02:42:58.702Z,97463.83
2019-06-15T02:46:03.520Z,97471.28
2019-06-15T02:49:07.963Z,97474.11
2019-06-15T02:52:12.674Z,97484.05
2019-06-15T02:55:17.139Z,97496.99
2019-06-15T02:58:21.580Z,97505.67
2019-06-15T03:01:26.216Z,97523.28
2019-06-15T03:04:30.663Z,97534.50
2019-06-15T03:07:35.451Z,97554.13
2019-06-15T03:10:39.902Z,97562.68
2019-06-15T03:13:45.491Z,97573.05
2019-06-15T03:16:49.949Z,97582.86
2019-06-15T03:19:54.583Z,97593.22
2019-06-15T03:22:59.023Z,97604.57
2019-06-15T03:26:05.767Z,97613.72
2019-06-15T03:29:09.964Z,97627.22
2019-06-15T03:32:14.407Z,97633.66
2019-06-15T03:35:20.468Z,97634.48
2019-06-15T03:38:24.959Z,97645.06
2019-06-15T03:41:29.367Z,97653.49
2019-06-15T03:44:33.834Z,97657.52
2019-06-15T03:47:38.288Z,97677.76
2019-06-15T03:50:42.740Z,97689.16
2019-06-15T03:53:47.189Z,97678.70
2019-06-15T03:56:51.625Z,97679.52
2019-06-15T03:59:56.077Z,97669.50
2019-06-15T04:03:00.515Z,97670.80
2019-06-15T04:06:05.287Z,97687.55
2019-06-15T04:09:09.796Z,97701.20
2019-06-15T04:12:14.267Z,97719.63
2019-06-15T04:15:18.715Z,97742.31
2019-06-15T04:18:23.713Z,97747.59
2019-06-15T04:21:28.171Z,97743.67
2019-06-15T04:24:32.857Z,97750.63
2019-06-15T04:27:37.297Z,97764.20
2019-06-15T04:30:42.825Z,97772.92
2019-06-15T04:33:47.267Z,97785.13
2019-06-15T04:36:51.990Z,97788.56
2019-06-15T04:39:56.473Z,97786.11
2019-06-15T04:43:01.256Z,97801.31
2019-06-15T04:46:06.175Z,97807.13
2019-06-15T04:49:10.908Z,97807.13
2019-06-15T04:52:15.377Z,97816.72
2019-06-15T04:55:19.799Z,97807.05
2019-06-15T04:58:24.237Z,97805.52
2019-06-15T05:01:28.699Z,97819.88
2019-06-15T05:04:33.151Z,97840.70
2019-06-15T05:07:37.601Z,97841.59
2019-06-15T05:10:42.059Z,97851.75
2019-06-15T05:13:46.502Z,97849.65
2019-06-15T05:16:50.964Z,97852.47
2019-06-15T05:19:55.419Z,97855.80
2019-06-15T05:23:00.185Z,97870.05
2019-06-15T05:26:04.807Z,97877.19
2019-06-15T05:29:09.543Z,97880.59
2019-06-15T05:32:14.278Z,97895.31
2019-06-15T05:35:18.885Z,97895.34
2019-06-15T05:38:23.638Z,97900.39
2019-06-15T05:41:28.082Z,97903.11
2019-06-15T05:44:32.532Z,97899.05
2019-06-15T05:47:36.980Z,97901.45
2019-06-15T05:50:41.435Z,97901.27
2019-06-15T05:53:45.883Z,97896.17
2019-06-15T05:56:50.342Z,97901.89
2019-06-15T05:59:54.782Z,97908.84
2019-06-15T06:02:59.240Z,97914.15
2019-06-15T06:06:04.250Z,97918.92
2019-06-15T06:09:08.943Z,97921.21
2019-06-15T06:12:13.406Z,97932.00
2019-06-15T06:15:19.187Z,97929.63
2019-06-15T06:18:23.905Z,97926.34
2019-06-15T06:21:28.362Z,97936.36
2019-06-15T06:24:32.797Z,97934.16
2019-06-15T06:27:37.254Z,97929.04
2019-06-15T06:30:41.706Z,97932.86
2019-06-15T06:33:46.150Z,97932.48
2019-06-15T06:36:50.607Z,97930.39
2019-06-15T06:39:55.050Z,97932.22
2019-06-15T06:42:59.518Z,97939.70
2019-06-15T06:46:04.144Z,97946.00
2019-06-15T06:49:08.599Z,97946.83
2019-06-15T06:52:13.050Z,97960.02
2019-06-15T06:55:17.509Z,97959.19
2019-06-15T06:58:21.954Z,97968.30
2019-06-15T07:01:26.413Z,97966.19
2019-06-15T07:04:30.879Z,97976.30
2019-06-15T07:07:35.315Z,97979.63
2019-06-15T07:10:39.753Z,97983.52
2019-06-15T07:13:44.218Z,97987.01
2019-06-15T07:16:48.718Z,97990.34
2019-06-15T07:19:53.496Z,97995.63
2019-06-15T07:22:57.951Z,98004.95
2019-06-15T07:26:02.394Z,98020.36
2019-06-15T07:29:06.845Z,98020.80
2019-06-15T07:32:11.310Z,98026.01
2019-06-15T07:35:15.820Z,98022.72
2019-06-15T07:38:20.283Z,98023.53
2019-06-15T07:41:24.721Z,98020.39
2019-06-15T07:44:29.237Z,98025.89
2019-06-15T07:47:34.021Z,98030.67
2019-06-15T07:50:38.468Z,98023.89
2019-06-15T07:53:42.920Z,98030.33
2019-06-15T07:56:47.357Z,98030.67
2019-06-15T07:59:51.879Z,98035.47
2019-06-15T08:02:56.333Z,98051.98
2019-06-15T08:06:01.090Z,98053.40
2019-06-15T08:09:07.295Z,98047.21
2019-06-15T08:12:11.733Z,98044.75
2019-06-15T08:15:17.061Z,98057.94
2019-06-15T08:18:21.842Z,98066.09
2019-06-15T08:21:26.287Z,98064.41
2019-06-15T08:24:30.741Z,98064.37
2019-06-15T08:27:35.603Z,98082.86
2019-06-15T08:30:46.535Z,98089.27
2019-06-15T08:33:50.991Z,98093.88
2019-06-15T08:36:55.430Z,98088.13
2019-06-15T08:39:59.890Z,98093.48
2019-06-15T08:43:05.152Z,98087.90
2019-06-15T08:46:09.597Z,98092.45
2019-06-15T08:49:14.049Z,98100.77
2019-06-15T08:52:18.507Z,98101.58
2019-06-15T08:55:22.942Z,98100.87
2019-06-15T08:58:27.396Z,98106.34
2019-06-15T09:01:31.835Z,98104.48
2019-06-15T09:04:36.300Z,98108.59
2019-06-15T09:07:40.738Z,98110.75
2019-06-15T09:10:45.185Z,98105.59
2019-06-15T09:13:49.661Z,98113.75
2019-06-15T09:16:54.093Z,98110.20
2019-06-15T09:19:58.572Z,98109.08
2019-06-15T09:23:03.373Z,98110.90
2019-06-15T09:26:07.839Z,98101.55
2019-06-15T09:29:12.310Z,98111.13
2019-06-15T09:32:16.739Z,98109.25
2019-06-15T09:35:21.193Z,98109.70
2019-06-15T09:38:25.984Z,98107.53
2019-06-15T09:41:30.521Z,98111.66
2019-06-15T09:44:35.250Z,98125.87
2019-06-15T09:47:39.987Z,98122.79
2019-06-15T09:50:44.699Z,98121.32
2019-06-15T09:53:49.146Z,98122.48
2019-06-15T09:56:53.845Z,98117.64
2019-06-15T09:59:58.296Z,98127.88
2019-06-15T10:03:02.736Z,98122.85
2019-06-15T10:06:11.585Z,98125.58
2019-06-15T10:09:13.534Z,98131.56
2019-06-15T10:12:17.996Z,98136.17
2019-06-15T10:15:22.580Z,98130.33
2019-06-15T10:18:27.027Z,98131.75
2019-06-15T10:21:31.803Z,98142.64
2019-06-15T10:24:36.241Z,98143.39
2019-06-15T10:27:40.854Z,98147.80
2019-06-15T10:30:45.310Z,98145.69
2019-06-15T10:33:49.837Z,98147.36
2019-06-15T10:36:54.272Z,98154.09
2019-06-15T10:39:58.720Z,98161.25
2019-06-15T10:43:03.169Z,98163.73
2019-06-15T10:46:07.615Z,98161.12
2019-06-15T10:49:12.062Z,98164.17
2019-06-15T10:52:16.523Z,98165.03
2019-06-15T10:55:20.983Z,98167.10
2019-06-15T10:58:25.445Z,98175.69
2019-06-15T11:01:29.901Z,98164.66
2019-06-15T11:04:34.636Z,98168.70
2019-06-15T11:07:39.111Z,98162.86
2019-06-15T11:10:57.164Z,98169.92
2019-06-15T11:14:01.632Z,98175.28
2019-06-15T11:17:06.384Z,98179.69
2019-06-15T11:20:11.227Z,98179.98
2019-06-15T11:23:15.690Z,98183.09
2019-06-15T11:26:20.460Z,98181.73
2019-06-15T11:29:24.904Z,98185.20
2019-06-15T11:32:29.358Z,98187.58
2019-06-15T11:35:34.137Z,98183.88
2019-06-15T11:38:38.592Z,98193.58
2019-06-15T11:41:43.051Z,98193.26
2019-06-15T11:44:47.504Z,98196.38
2019-06-15T11:47:51.972Z,98197.78
2019-06-15T11:50:56.434Z,98198.78
2019-06-15T11:54:00.879Z,98195.15
2019-06-15T11:57:05.647Z,98198.62
2019-06-15T12:00:11.498Z,98201.57
2019-06-15T12:03:15.944Z,98189.22
2019-06-15T12:06:20.724Z,98196.86
2019-06-15T12:09:25.166Z,98197.77
2019-06-15T12:12:29.615Z,98203.11
2019-06-15T12:15:34.053Z,98206.81
2019-06-15T12:18:38.511Z,98195.06
2019-06-15T12:21:42.977Z,98199.83
2019-06-15T12:24:47.415Z,98192.92
2019-06-15T12:27:51.873Z,98185.05
2019-06-15T12:30:56.328Z,98194.41
2019-06-15T12:34:00.772Z,98197.08
2019-06-15T12:37:05.293Z,98197.63
2019-06-15T12:40:09.875Z,98188.66
2019-06-15T12:43:14.603Z,98202.29
2019-06-15T12:46:19.358Z,98202.10
2019-06-15T12:49:23.806Z,98197.14
2019-06-15T12:52:28.259Z,98197.55
2019-06-15T12:55:32.708Z,98191.45
2019-06-15T12:58:37.170Z,98196.60
2019-06-15T13:01:41.894Z,98199.66
2019-06-15T13:04:46.351Z,98201.48
2019-06-15T13:07:50.806Z,98213.09
2019-06-15T13:10:55.315Z,98201.94
2019-06-15T13:14:01.305Z,98202.88
2019-06-15T13:17:05.764Z,98202.23
2019-06-15T13:20:10.652Z,98196.01
2019-06-15T13:23:15.125Z,98205.91
2019-06-15T13:26:19.578Z,98203.73
2019-06-15T13:29:24.363Z,98204.19
2019-06-15T13:32:28.837Z,98202.83
2019-06-15T13:35:33.537Z,98203.05
2019-06-15T13:38:38.017Z,98197.33
2019-06-15T13:41:42.768Z,98193.19
2019-06-15T13:44:47.218Z,98191.80
2019-06-15T13:47:51.670Z,98194.13
2019-06-15T13:50:56.113Z,98198.57
2019-06-15T13:54:00.575Z,98205.42
2019-06-15T13:57:05.301Z,98216.05
2019-06-15T14:00:10.663Z,98204.77
2019-06-15T14:03:15.112Z,98203.78
2019-06-15T14:06:19.564Z,98199.38
2019-06-15T14:09:24.030Z,98199.98
2019-06-15T14:12:28.474Z,98195.67
2019-06-15T14:15:32.926Z,98205.34
2019-06-15T14:18:37.384Z,98200.00
2019-06-15T14:21:42.001Z,98194.98
2019-06-15T14:24:46.462Z,98193.08
2019-06-15T14:27:50.922Z,98196.28
2019-06-15T14:30:55.703Z,98195.22
2019-06-15T14:34:00.151Z,98188.59
2019-06-15T14:37:04.600Z,98185.94
2019-06-15T14:40:09.667Z,98195.50
2019-06-15T14:43:14.117Z,98194.73
2019-06-15T14:46:18.636Z,98194.45
2019-06-15T14:49:23.095Z,98186.84
2019-06-15T14:52:27.537Z,98185.44
2019-06-15T14:55:31.983Z,98194.39
2019-06-15T14:58:36.680Z,98191.70
2019-06-15T15:01:41.231Z,98183.97
2019-06-15T15:04:46.444Z,98182.16
2019-06-15T15:07:50.907Z,98180.69
2019-06-15T15:10:56.244Z,98188.20
2019-06-15T15:14:00.892Z,98184.20
2019-06-15T15:17:06.542Z,98181.47
2019-06-15T15:20:12.377Z,98184.81
2019-06-15T15:23:16.827Z,98170.12
2019-06-15T15:26:21.350Z,98162.52
2019-06-15T15:29:27.012Z,98173.02
2019-06-15T15:32:31.948Z,98174.15
2019-06-15T15:35:37.318Z,98166.86
2019-06-15T15:38:41.871Z,98172.73
2019-06-15T15:41:46.989Z,98168.80
2019-06-15T15:44:51.673Z,98162.66
2019-06-15T15:47:57.849Z,98156.60
2019-06-15T15:51:02.321Z,98159.11
2019-06-15T15:54:07.296Z,98151.89
2019-06-15T15:57:11.801Z,98141.91
2019-06-15T16:00:27.099Z,98149.73
2019-06-15T16:03:31.852Z,98151.11
2019-06-15T16:06:36.438Z,98143.97
2019-06-15T16:09:40.957Z,98142.41
2019-06-15T16:12:46.421Z,98141.80
2019-06-15T16:15:51.039Z,98144.20
2019-06-15T16:18:56.161Z,98151.76
2019-06-15T16:22:01.068Z,98146.11
2019-06-15T16:25:06.998Z,98143.52
2019-06-15T16:28:11.447Z,98140.01
2019-06-15T16:31:18.746Z,98142.20
2019-06-15T16:34:22.068Z,98140.25
2019-06-15T16:37:26.519Z,98145.78
2019-06-15T16:40:38.451Z,98137.55
2019-06-15T16:43:43.068Z,98132.07
2019-06-15T16:46:47.836Z,98132.88
2019-06-15T16:49:52.293Z,98133.02
2019-06-15T16:52:57.081Z,98138.89
2019-06-15T16:56:01.829Z,98135.49
2019-06-15T16:59:06.821Z,98139.81
2019-06-15T17:02:11.289Z,98137.34
2019-06-15T17:05:16.820Z,98136.92
2019-06-15T17:08:21.430Z,98145.66
2019-06-15T17:11:26.434Z,98149.06
2019-06-15T17:14:31.032Z,98142.87
2019-06-15T17:17:36.871Z,98150.30
2019-06-15T17:20:48.758Z,98154.41
2019-06-15T17:23:53.206Z,98140.78
2019-06-15T17:26:57.915Z,98150.05
2019-06-15T17:30:02.440Z,98151.67
2019-06-15T17:33:08.398Z,98144.96
2019-06-15T17:36:13.237Z,98145.39
2019-06-15T17:39:17.675Z,98140.08
2019-06-15T17:42:22.111Z,98145.49
2019-06-15T17:45:26.777Z,98142.66
2019-06-15T17:48:31.322Z,98144.38
2019-06-15T17:51:36.847Z,98137.52
2019-06-15T17:54:41.566Z,98145.59
2019-06-15T17:57:46.493Z,98143.06
2019-06-15T18:00:51.621Z,98143.48
2019-06-15T18:03:58.226Z,98133.87
2019-06-15T18:07:02.627Z,98134.13
2019-06-15T18:10:08.899Z,98123.93
2019-06-15T18:13:13.357Z,98130.56
2019-06-15T18:16:17.815Z,98136.23
2019-06-15T18:19:22.271Z,98132.21
2019-06-15T18:22:26.732Z,98129.80
2019-06-15T18:25:31.210Z,98127.32
2019-06-15T18:28:36.265Z,98124.86
2019-06-15T18:31:41.145Z,98120.56
2019-06-15T18:34:46.480Z,98122.86
2019-06-15T18:37:51.036Z,98130.27
2019-06-15T18:40:56.380Z,98127.55
2019-06-15T18:44:00.867Z,98132.71
2019-06-15T18:47:07.118Z,98136.47
2019-06-15T18:50:12.459Z,98141.36
2019-06-15T18:53:16.915Z,98144.55
2019-06-15T18:56:21.377Z,98142.38
2019-06-15T18:59:26.178Z,98136.13
2019-06-15T19:02:31.534Z,98134.66
2019-06-15T19:05:37.367Z,98147.02
2019-06-15T19:08:41.956Z,98137.27
2019-06-15T19:11:46.403Z,98132.73
2019-06-15T19:14:50.849Z,98134.30
2019-06-15T19:17:56.054Z,98143.98
2019-06-15T19:21:00.590Z,98135.20
2019-06-15T19:24:07.174Z,98141.14
2019-06-15T19:27:11.242Z,98142.36
2019-06-15T19:30:15.864Z,98138.40
2019-06-15T19:33:20.325Z,98135.66
2019-06-15T19:36:24.757Z,98138.95
2019-06-15T19:39:29.291Z,98134.52
2019-06-15T19:42:36.387Z,98128.73
2019-06-15T19:45:39.944Z,98134.43
2019-06-15T19:48:45.804Z,98142.04
2019-06-15T19:51:50.410Z,98148.04
2019-06-15T19:54:54.861Z,98150.88
2019-06-15T19:57:59.315Z,98156.00
2019-06-15T20:01:06.502Z,98152.53
2019-06-15T20:04:10.399Z,98158.91
2019-06-15T20:07:16.892Z,98173.09
2019-06-15T20:10:22.779Z,98174.13
2019-06-15T20:13:27.221Z,98174.89
2019-06-15T20:16:31.725Z,98189.66
2019-06-15T20:19:37.714Z,98191.23
2019-06-15T20:22:42.294Z,98182.14
2019-06-15T20:25:47.171Z,98179.20
2019-06-15T20:28:51.798Z,98180.98
2019-06-15T20:31:57.055Z,98180.09
2019-06-15T20:35:16.054Z,98193.45
2019-06-15T20:38:07.843Z,98214.83
2019-06-15T20:41:12.294Z,98235.58
2019-06-15T20:44:16.761Z,98251.85
2019-06-15T20:47:21.762Z,98255.80
2019-06-15T20:50:28.540Z,98242.59
2019-06-15T20:53:32.690Z,98239.91
2019-06-15T20:56:37.551Z,98225.28
2019-06-15T20:59:42.131Z,98230.65
2019-06-15T21:02:46.572Z,98240.46
2019-06-15T21:05:51.033Z,98261.09
2019-06-15T21:08:55.491Z,98279.08
2019-06-15T21:11:59.925Z,98296.78
2019-06-15T21:15:08.256Z,98306.77
2019-06-15T21:18:12.726Z,98312.00
2019-06-15T21:21:17.507Z,98308.30
2019-06-15T21:24:22.123Z,98318.47
2019-06-15T21:27:26.658Z,98324.59
2019-06-15T21:30:31.357Z,98341.26
2019-06-15T21:33:36.197Z,98336.03
2019-06-15T21:36:41.602Z,98345.94
2019-06-15T21:39:46.912Z,98352.08
2019-06-15T21:42:51.531Z,98356.20
2019-06-15T21:45:57.034Z,98352.45
2019-06-15T21:49:01.769Z,98356.30
2019-06-15T21:52:07.119Z,98364.50
2019-06-15T21:55:12.229Z,98364.63
2019-06-15T21:58:16.817Z,98373.23
2019-06-15T22:01:37.361Z,98383.64
2019-06-15T22:04:42.320Z,98387.34
2019-06-15T22:07:47.756Z,98394.93
2019-06-15T22:10:52.366Z,98398.23
2019-06-15T22:13:57.265Z,98412.31
2019-06-15T22:17:01.895Z,98421.76
2019-06-15T22:20:09.749Z,98427.20
2019-06-15T22:23:16.296Z,98428.75
2019-06-15T22:26:21.803Z,98441.90
2019-06-15T22:29:27.507Z,98444.33
2019-06-15T22:32:32.428Z,98449.20
2019-06-15T22:35:37.493Z,98452.91
2019-06-15T22:38:42.299Z,98455.00
2019-06-15T22:41:47.103Z,98453.79
2019-06-15T22:44:51.942Z,98450.84
2019-06-15T22:47:56.412Z,98438.53
2019-06-15T22:51:00.911Z,98437.50
2019-06-15T22:54:05.401Z,98447.73
2019-06-15T22:57:09.857Z,98454.36
2019-06-15T23:00:16.969Z,98464.57
2019-06-15T23:03:21.089Z,98457.02
2019-06-15T23:06:34.761Z,98461.25
2019-06-15T23:09:31.816Z,98457.02
2019-06-15T23:12:56.896Z,98449.80
2019-06-15T23:16:01.454Z,98452.36
2019-06-15T23:19:07.984Z,98453.14
2019-06-15T23:22:12.690Z,98453.19
2019-06-15T23:25:17.555Z,98451.22
2019-06-15T23:28:23.743Z,98456.83
2019-06-15T23:31:28.651Z,98462.09
2019-06-15T23:34:33.258Z,98465.52
2019-06-15T23:37:38.234Z,98468.83
2019-06-15T23:40:42.739Z,98469.80
2019-06-15T23:43:47.285Z,98469.53
2019-06-15T23:46:51.730Z,98467.90
2019-06-15T23:49:56.531Z,98471.97
2019-06-15T23:53:01.067Z,98470.67
2019-06-15T23:56:07.226Z,98476.43
2019-06-15T23:59:11.701Z,98481.36
